Time;durP1;ratioP1;P1;durP2;ratioP2;P2;SDS_P1;SDS_P2;PMS_P1;PMS_P2;Temp;Humidity;BMP_temperature;BMP_pressure;BME280_temperature;BME280_humidity;BME280_pressure;Samples;Min_cycle;Max_cycle;Signal;HPM_P1;HPM_P2
2022/12/16 00:00:09;;;;;;;53.03;25.47;;;;;-4.30;92534.00;;;;7396001;19;20608;-76
2022/12/16 00:02:36;;;;;;;50.43;26.13;;;;;-4.40;92532.00;;;;7397179;19;20132;-76
2022/12/16 00:05:12;;;;;;;53.47;27.63;;;;;-4.30;92529.00;;;;7397588;19;20129;-76
2022/12/16 00:07:39;;;;;;;50.90;26.07;;;;;-4.30;92527.00;;;;7396702;19;20593;-76
2022/12/16 00:10:08;;;;;;;48.20;25.37;;;;;-4.30;92527.00;;;;7397871;19;20129;-76
2022/12/16 00:12:41;;;;;;;48.73;25.60;;;;;-4.30;92536.00;;;;7395304;19;20144;-76
2022/12/16 00:15:09;;;;;;;53.60;25.57;;;;;-4.40;92535.00;;;;7395652;19;20145;-76
2022/12/16 00:17:38;;;;;;;50.87;24.43;;;;;-4.40;92536.00;;;;7396711;19;20138;-75
2022/12/16 00:20:12;;;;;;;45.97;23.60;;;;;-4.40;92540.00;;;;7403078;19;20141;-76
2022/12/16 00:22:39;;;;;;;47.13;24.60;;;;;-4.40;92540.00;;;;7404880;19;20126;-76
2022/12/16 00:25:07;;;;;;;47.03;25.13;;;;;-4.50;92550.00;;;;7403148;19;20194;-76
2022/12/16 00:27:43;;;;;;;45.77;23.93;;;;;-4.30;92541.00;;;;7402717;19;20192;-76
2022/12/16 00:30:11;;;;;;;47.57;24.57;;;;;-4.50;92537.00;;;;7402561;19;20137;-76
2022/12/16 00:32:38;;;;;;;46.63;24.00;;;;;-4.30;92535.00;;;;7401032;19;20157;-76
2022/12/16 00:35:19;;;;;;;40.57;23.40;;;;;-4.40;92543.00;;;;7402876;19;20122;-76
2022/12/16 00:37:47;;;;;;;52.57;25.27;;;;;-4.30;92540.00;;;;7402405;19;20600;-76
2022/12/16 00:40:21;;;;;;;42.17;23.67;;;;;-4.40;92547.00;;;;7402256;19;20144;-76
2022/12/16 00:42:49;;;;;;;49.27;23.37;;;;;-4.40;92550.00;;;;7402633;19;20617;-77
2022/12/16 00:45:18;;;;;;;43.60;22.20;;;;;-4.40;92562.00;;;;7403754;19;20136;-76
2022/12/16 00:47:52;;;;;;;47.60;23.93;;;;;-4.40;92561.00;;;;7401982;19;20140;-76
2022/12/16 00:50:20;;;;;;;38.77;21.67;;;;;-4.40;92561.00;;;;7403288;19;20123;-76
2022/12/16 00:52:48;;;;;;;42.97;22.73;;;;;-4.40;92562.00;;;;7397347;19;20135;-76
2022/12/16 00:55:22;;;;;;;39.60;22.90;;;;;-4.40;92572.00;;;;7397475;19;20548;-76
2022/12/16 00:57:51;;;;;;;38.90;22.20;;;;;-4.40;92574.00;;;;7399446;19;20207;-76
2022/12/16 01:00:21;;;;;;;40.93;21.13;;;;;-4.30;92581.00;;;;7400675;19;20533;-77
2022/12/16 01:02:56;;;;;;;40.17;22.17;;;;;-4.30;92574.00;;;;7403491;19;20151;-76
2022/12/16 01:05:27;;;;;;;46.03;22.77;;;;;-4.40;92577.00;;;;7401868;19;20209;-76
2022/12/16 01:07:55;;;;;;;40.70;22.23;;;;;-4.30;92568.00;;;;7400847;19;20173;-77
2022/12/16 01:10:28;;;;;;;45.00;23.27;;;;;-4.40;92576.00;;;;7403334;19;20596;-76
2022/12/16 01:12:56;;;;;;;40.13;22.30;;;;;-4.40;92564.00;;;;7401160;19;20153;-75
2022/12/16 01:15:23;;;;;;;45.90;23.20;;;;;-4.30;92557.00;;;;7402111;19;20137;-75
2022/12/16 01:17:57;;;;;;;45.07;24.13;;;;;-4.30;92568.00;;;;7402794;19;20151;-75
2022/12/16 01:20:25;;;;;;;41.03;22.00;;;;;-4.30;92564.00;;;;7401172;19;20122;-77
2022/12/16 01:22:52;;;;;;;41.17;22.30;;;;;-4.50;92571.00;;;;7401153;19;20138;-75
2022/12/16 01:25:26;;;;;;;42.40;21.93;;;;;-4.30;92563.00;;;;7400957;19;20147;-76
2022/12/16 01:27:54;;;;;;;44.60;22.37;;;;;-4.40;92565.00;;;;7401168;19;20702;-78
2022/12/16 01:30:22;;;;;;;42.13;21.53;;;;;-4.50;92569.00;;;;7400250;19;20129;-76
2022/12/16 01:33:10;;;;;;;42.27;21.77;;;;;-4.50;92579.00;;;;7400742;19;20152;-76
2022/12/16 01:35:44;;;;;;;44.03;22.80;;;;;-4.50;92578.00;;;;7400652;19;20207;-76
2022/12/16 01:38:22;;;;;;;41.87;22.20;;;;;-4.50;92586.00;;;;7402473;19;20141;-75
2022/12/16 01:40:50;;;;;;;38.67;21.77;;;;;-4.40;92593.00;;;;7401933;19;20146;-76
2022/12/16 01:43:21;;;;;;;40.53;21.93;;;;;-4.40;92599.00;;;;7400630;19;20153;-76
2022/12/16 01:46:17;;;;;;;41.70;21.27;;;;;-4.30;92598.00;;;;7400232;19;20129;-76
2022/12/16 01:48:55;;;;;;;44.40;21.73;;;;;-4.50;92597.00;;;;7400839;19;20155;-76
2022/12/16 01:51:35;;;;;;;41.60;21.40;;;;;-4.60;92598.00;;;;7402059;19;20189;-76
2022/12/16 01:54:14;;;;;;;44.90;22.37;;;;;-4.50;92601.00;;;;7398999;19;20541;-76
2022/12/16 01:57:08;;;;;;;41.93;21.37;;;;;-4.40;92609.00;;;;7400105;19;20625;-76
2022/12/16 01:59:39;;;;;;;37.90;21.10;;;;;-4.50;92607.00;;;;7399915;19;20158;-76
2022/12/16 02:02:13;;;;;;;39.37;21.60;;;;;-4.40;92615.00;;;;7399940;19;20596;-76
2022/12/16 02:05:19;;;;;;;39.50;20.77;;;;;-4.50;92609.00;;;;7401556;19;20126;-76
2022/12/16 02:07:38;;;;;;;41.40;20.60;;;;;-4.50;92612.00;;;;7399634;19;20181;-76
2022/12/16 02:10:06;;;;;;;40.50;20.83;;;;;-4.60;92606.00;;;;7401611;19;20147;-76
2022/12/16 02:12:56;;;;;;;36.30;19.27;;;;;-4.70;92610.00;;;;7399455;19;20174;-76
2022/12/16 02:16:04;;;;;;;37.17;19.90;;;;;-4.70;92611.00;;;;7401565;19;20124;-77
2022/12/16 02:18:37;;;;;;;33.47;18.80;;;;;-4.70;92607.00;;;;7400937;19;20188;-76
2022/12/16 02:21:22;;;;;;;36.40;19.50;;;;;-4.80;92601.00;;;;7400919;19;20128;-75
2022/12/16 02:24:28;;;;;;;36.90;19.23;;;;;-4.70;92616.00;;;;7400758;19;20591;-76
2022/12/16 02:27:31;;;;;;;37.90;19.33;;;;;-4.80;92619.00;;;;7399007;19;20145;-76
2022/12/16 02:30:07;;;;;;;38.83;19.57;;;;;-4.70;92611.00;;;;7400198;19;20628;-75
2022/12/16 02:33:36;;;;;;;36.00;18.67;;;;;-4.60;92615.00;;;;7397719;19;20169;-76
2022/12/16 02:36:10;;;;;;;34.03;18.43;;;;;-4.70;92613.00;;;;7394949;19;20600;-76
2022/12/16 02:39:19;;;;;;;34.43;17.83;;;;;-4.70;92615.00;;;;7399017;19;20132;-76
2022/12/16 02:42:09;;;;;;;33.37;18.33;;;;;-4.70;92613.00;;;;7397031;19;20207;-76
2022/12/16 02:45:00;;;;;;;34.90;18.00;;;;;-4.70;92618.00;;;;7397582;19;20145;-76
2022/12/16 02:47:36;;;;;;;31.33;18.33;;;;;-4.70;92628.00;;;;7399463;19;20149;-76
2022/12/16 02:50:26;;;;;;;35.73;19.03;;;;;-4.80;92626.00;;;;7399433;19;20126;-75
2022/12/16 02:52:59;;;;;;;36.17;19.33;;;;;-4.80;92628.00;;;;7399952;19;20129;-75
2022/12/16 02:55:54;;;;;;;37.03;18.97;;;;;-4.80;92638.00;;;;7399025;19;20131;-77
2022/12/16 02:58:27;;;;;;;38.43;19.97;;;;;-4.80;92638.00;;;;7397829;19;20141;-77
2022/12/16 03:01:30;;;;;;;37.33;18.57;;;;;-4.70;92635.00;;;;7396500;19;20152;-76
2022/12/16 03:04:05;;;;;;;32.67;19.10;;;;;-4.80;92646.00;;;;7398455;19;20130;-76
2022/12/16 03:06:41;;;;;;;31.10;17.63;;;;;-4.70;92648.00;;;;7398529;19;20200;-76
2022/12/16 03:09:12;;;;;;;29.47;17.60;;;;;-4.70;92651.00;;;;7396339;19;20147;-75
2022/12/16 03:11:49;;;;;;;31.63;18.10;;;;;-4.90;92658.00;;;;7398694;19;20130;-76
2022/12/16 03:14:19;;;;;;;32.10;17.63;;;;;-4.80;92663.00;;;;7396786;19;20205;-76
2022/12/16 03:16:54;;;;;;;34.00;16.87;;;;;-4.80;92659.00;;;;7398284;19;20132;-76
2022/12/16 03:19:23;;;;;;;31.37;17.33;;;;;-4.80;92665.00;;;;7398716;19;20472;-76
2022/12/16 03:21:58;;;;;;;28.47;16.50;;;;;-4.80;92664.00;;;;7398568;19;20146;-75
2022/12/16 03:24:32;;;;;;;30.10;16.90;;;;;-4.90;92673.00;;;;7398941;19;20130;-76
2022/12/16 03:27:25;;;;;;;29.13;16.67;;;;;-4.90;92671.00;;;;7396641;19;20148;-76
2022/12/16 03:30:10;;;;;;;29.33;15.97;;;;;-4.70;92660.00;;;;7398324;19;20113;-76
2022/12/16 03:32:50;;;;;;;29.47;15.43;;;;;-4.80;92664.00;;;;7397957;19;20161;-76
2022/12/16 03:35:43;;;;;;;28.50;15.87;;;;;-4.80;92660.00;;;;7395514;19;20148;-76
2022/12/16 03:38:13;;;;;;;26.67;15.70;;;;;-4.80;92665.00;;;;7397319;19;20211;-76
2022/12/16 03:40:47;;;;;;;27.93;16.27;;;;;-4.80;92669.00;;;;7396756;19;20133;-76
2022/12/16 03:43:15;;;;;;;32.33;16.63;;;;;-4.80;92667.00;;;;7396817;19;20132;-77
2022/12/16 03:45:44;;;;;;;26.87;15.50;;;;;-4.70;92674.00;;;;7397955;19;20129;-76
2022/12/16 03:48:23;;;;;;;30.43;16.50;;;;;-4.70;92678.00;;;;7396715;19;20147;-76
2022/12/16 03:50:51;;;;;;;28.67;16.60;;;;;-4.60;92670.00;;;;7396355;19;20141;-77
2022/12/16 03:53:18;;;;;;;28.00;15.90;;;;;-4.60;92679.00;;;;7398148;19;20456;-76
2022/12/16 03:55:53;;;;;;;28.60;15.23;;;;;-4.70;92670.00;;;;7405629;19;20142;-76
2022/12/16 03:58:21;;;;;;;30.33;16.67;;;;;-4.60;92688.00;;;;7405095;19;20182;-76
2022/12/16 04:00:48;;;;;;;27.00;15.07;;;;;-4.60;92682.00;;;;7403363;19;20139;-77
2022/12/16 04:03:25;;;;;;;35.27;16.80;;;;;-4.60;92689.00;;;;7403663;19;20151;-76
2022/12/16 04:05:52;;;;;;;27.93;15.30;;;;;-4.70;92674.00;;;;7403625;19;20146;-77
2022/12/16 04:08:20;;;;;;;28.73;15.57;;;;;-4.70;92685.00;;;;7402370;19;20155;-76
2022/12/16 04:25:31;;;;;;;30.17;15.10;;;;;-4.60;92703.00;;;;7404439;19;20196;-76
2022/12/16 04:28:04;;;;;;;30.63;16.67;;;;;-4.60;92702.00;;;;7404463;19;20138;-76
2022/12/16 04:30:35;;;;;;;29.10;15.57;;;;;-4.60;92705.00;;;;7402740;19;20130;-76
